createdAt,value
2023-02-27T00:01:34.891Z,-1.56
2023-02-27T00:04:07.198Z,-1.71
2023-02-27T00:06:39.824Z,-1.55
2023-02-27T00:09:12.004Z,-1.74
2023-02-27T00:11:47.234Z,-1.62
2023-02-27T00:14:19.323Z,-1.56
2023-02-27T00:16:52.002Z,-1.61
2023-02-27T00:19:24.842Z,-1.70
2023-02-27T00:21:57.492Z,-1.74
2023-02-27T00:24:29.863Z,-1.89
2023-02-27T00:27:05.243Z,-1.76
2023-02-27T00:29:37.548Z,-1.81
2023-02-27T00:32:10.402Z,-1.81
2023-02-27T00:34:42.624Z,-1.84
2023-02-27T00:37:15.379Z,-1.95
2023-02-27T00:39:47.319Z,-1.74
2023-02-27T00:42:22.460Z,-1.88
2023-02-27T00:44:54.321Z,-1.84
2023-02-27T00:47:26.820Z,-2.02
2023-02-27T00:49:58.822Z,-1.94
2023-02-27T00:52:33.927Z,-1.95
2023-02-27T00:55:05.703Z,-1.90
2023-02-27T00:57:40.987Z,-1.98
2023-02-27T01:00:14.362Z,-1.91
2023-02-27T01:02:46.503Z,-1.92
2023-02-27T01:05:18.684Z,-2.04
2023-02-27T01:07:51.040Z,-2.06
2023-02-27T01:10:22.882Z,-2.07
2023-02-27T01:12:57.846Z,-2.02
2023-02-27T01:15:29.688Z,-2.01
2023-02-27T01:18:02.000Z,-2.06
2023-02-27T01:20:34.187Z,-2.00
2023-02-27T01:23:06.959Z,-2.03
2023-02-27T01:25:41.126Z,-1.98
2023-02-27T01:28:15.987Z,-2.08
2023-02-27T01:30:48.289Z,-2.05
2023-02-27T01:33:21.286Z,-2.07
2023-02-27T01:35:53.507Z,-2.10
2023-02-27T01:38:27.278Z,-2.08
2023-02-27T01:41:01.151Z,-2.09
2023-02-27T01:43:36.209Z,-2.12
2023-02-27T01:46:08.320Z,-2.12
2023-02-27T01:48:45.565Z,-2.13
2023-02-27T01:51:22.220Z,-2.29
2023-02-27T01:53:56.607Z,-2.33
2023-02-27T01:56:31.363Z,-2.22
2023-02-27T01:59:09.643Z,-2.23
2023-02-27T02:01:42.024Z,-2.35
2023-02-27T02:04:21.248Z,-2.22
2023-02-27T02:06:59.066Z,-2.25
2023-02-27T02:09:33.006Z,-2.22
2023-02-27T02:12:05.105Z,-2.17
2023-02-27T02:14:40.386Z,-2.24
2023-02-27T02:17:21.904Z,-2.19
2023-02-27T02:20:31.726Z,-2.22
2023-02-27T02:23:32.763Z,-2.35
2023-02-27T02:26:50.304Z,-2.22
2023-02-27T02:29:55.983Z,-2.33
2023-02-27T02:33:06.490Z,-2.22
2023-02-27T02:36:17.867Z,-2.24
2023-02-27T02:39:35.265Z,-2.27
2023-02-27T02:42:23.069Z,-2.37
2023-02-27T02:45:07.486Z,-2.26
2023-02-27T02:47:52.434Z,-2.23
2023-02-27T02:50:32.242Z,-2.25
2023-02-27T02:53:11.562Z,-2.19
2023-02-27T02:55:49.402Z,-2.19
2023-02-27T02:58:31.906Z,-2.23
2023-02-27T03:01:10.562Z,-2.26
2023-02-27T03:03:47.049Z,-2.24
2023-02-27T03:06:24.885Z,-2.23
2023-02-27T03:08:59.804Z,-2.25
2023-02-27T03:11:37.366Z,-2.26
2023-02-27T03:14:19.585Z,-2.30
2023-02-27T03:16:57.765Z,-2.44
2023-02-27T03:19:33.942Z,-2.38
2023-02-27T03:22:10.643Z,-2.37
2023-02-27T03:24:48.961Z,-2.34
2023-02-27T03:27:22.673Z,-2.44
2023-02-27T03:30:04.699Z,-2.45
2023-02-27T03:32:46.159Z,-2.46
2023-02-27T03:35:19.178Z,-2.47
2023-02-27T03:38:02.481Z,-2.40
2023-02-27T03:40:38.823Z,-2.42
2023-02-27T03:43:20.870Z,-2.50
2023-02-27T03:46:02.539Z,-2.51
2023-02-27T03:48:35.316Z,-2.54
2023-02-27T03:51:07.519Z,-2.63
2023-02-27T03:53:46.817Z,-2.65
2023-02-27T03:56:24.139Z,-2.56
2023-02-27T03:58:57.500Z,-2.56
2023-02-27T04:01:32.627Z,-2.51
2023-02-27T04:04:10.717Z,-2.57
2023-02-27T04:07:00.918Z,-2.60
2023-02-27T04:09:46.541Z,-2.69
2023-02-27T04:12:36.876Z,-2.66
2023-02-27T04:15:18.203Z,-2.82
2023-02-27T04:18:03.777Z,-2.62
2023-02-27T04:20:47.881Z,-2.66
2023-02-27T04:23:26.878Z,-2.67
2023-02-27T04:26:12.779Z,-2.63
2023-02-27T04:28:49.362Z,-2.62
2023-02-27T04:31:38.390Z,-2.63
2023-02-27T04:34:23.502Z,-2.64
2023-02-27T04:37:04.825Z,-2.67
2023-02-27T04:39:42.030Z,-2.68
2023-02-27T04:42:19.645Z,-2.75
2023-02-27T04:44:54.668Z,-2.74
2023-02-27T04:47:30.673Z,-2.65
2023-02-27T04:50:10.750Z,-2.71
2023-02-27T04:52:46.985Z,-2.78
2023-02-27T04:55:24.888Z,-2.78
2023-02-27T04:58:06.067Z,-2.97
2023-02-27T05:00:40.842Z,-3.00
2023-02-27T05:03:16.946Z,-2.82
2023-02-27T05:05:54.973Z,-2.88
2023-02-27T05:08:33.074Z,-2.79
2023-02-27T05:11:11.443Z,-2.88
2023-02-27T05:13:50.065Z,-3.05
2023-02-27T05:16:27.498Z,-2.98
2023-02-27T05:19:00.321Z,-2.94
2023-02-27T05:21:40.820Z,-2.99
2023-02-27T05:24:47.208Z,-3.13
2023-02-27T05:27:36.692Z,-3.01
2023-02-27T05:30:13.870Z,-3.05
2023-02-27T05:32:50.243Z,-3.07
2023-02-27T05:35:29.383Z,-3.01
2023-02-27T05:38:09.563Z,-3.04
2023-02-27T05:40:47.640Z,-3.16
2023-02-27T05:43:23.648Z,-3.08
2023-02-27T05:45:59.634Z,-3.07
2023-02-27T05:48:38.102Z,-3.03
2023-02-27T05:51:14.588Z,-3.13
2023-02-27T05:53:56.627Z,-3.14
2023-02-27T05:56:33.184Z,-3.01
2023-02-27T05:59:09.530Z,-2.95
2023-02-27T06:01:43.400Z,-3.04
2023-02-27T06:04:16.423Z,-2.93
2023-02-27T06:07:00.407Z,-3.00
2023-02-27T06:09:35.634Z,-3.03
2023-02-27T06:12:08.609Z,-2.95
2023-02-27T06:14:41.144Z,-2.92
2023-02-27T06:17:13.804Z,-2.87
2023-02-27T06:20:07.260Z,-3.12
2023-02-27T06:22:39.886Z,-2.99
2023-02-27T06:25:15.487Z,-2.87
2023-02-27T06:27:48.032Z,-2.92
2023-02-27T06:30:21.693Z,-2.99
2023-02-27T06:32:54.502Z,-3.05
2023-02-27T06:35:26.901Z,-3.08
2023-02-27T06:37:59.899Z,-3.14
2023-02-27T06:40:35.039Z,-2.71
2023-02-27T06:43:08.018Z,-2.60
2023-02-27T06:45:40.617Z,-2.60
2023-02-27T06:48:15.319Z,-2.54
2023-02-27T06:50:47.257Z,-2.69
2023-02-27T06:53:19.417Z,-2.65
2023-02-27T06:55:54.118Z,-2.54
2023-02-27T06:58:28.206Z,-2.55
2023-02-27T07:01:02.294Z,-2.55
2023-02-27T07:03:34.722Z,-2.17
2023-02-27T07:06:06.900Z,-2.38
2023-02-27T07:08:39.178Z,-2.41
2023-02-27T07:11:33.547Z,-2.30
2023-02-27T07:14:05.841Z,-2.23
2023-02-27T07:16:37.818Z,-2.08
2023-02-27T07:19:09.952Z,-1.93
2023-02-27T07:21:42.298Z,-2.02
2023-02-27T07:24:14.468Z,-1.84
2023-02-27T07:26:50.202Z,-1.64
2023-02-27T07:29:22.661Z,-2.00
2023-02-27T07:31:54.633Z,-2.03
2023-02-27T07:34:26.981Z,-1.85
2023-02-27T07:36:59.021Z,-1.71
2023-02-27T07:39:31.703Z,-1.80
2023-02-27T07:42:06.263Z,-1.82
2023-02-27T07:44:38.497Z,-1.88
2023-02-27T07:47:11.618Z,-1.63
2023-02-27T07:49:44.073Z,-1.49
2023-02-27T07:52:15.907Z,-1.39
2023-02-27T07:54:48.237Z,-1.35
2023-02-27T07:57:22.807Z,-1.47
2023-02-27T07:59:55.129Z,-1.26
2023-02-27T08:02:26.997Z,-1.10
2023-02-27T08:04:59.266Z,-0.92
2023-02-27T08:07:32.188Z,-0.77
2023-02-27T08:10:04.779Z,-0.62
2023-02-27T08:12:44.247Z,-0.50
2023-02-27T08:15:17.827Z,-0.59
2023-02-27T08:17:50.530Z,-0.46
2023-02-27T08:20:24.416Z,-0.27
2023-02-27T08:23:03.384Z,-0.69
2023-02-27T08:25:36.150Z,-0.59
2023-02-27T08:28:18.988Z,-0.72
2023-02-27T08:30:54.277Z,-0.65
2023-02-27T08:33:36.850Z,-0.34
2023-02-27T08:36:11.293Z,-0.30
2023-02-27T08:38:43.502Z,-0.34
2023-02-27T08:41:15.703Z,0.02
2023-02-27T08:43:50.339Z,0.22
2023-02-27T08:46:23.803Z,0.21
2023-02-27T08:48:56.344Z,0.40
2023-02-27T08:51:29.346Z,-0.01
2023-02-27T08:54:02.247Z,0.40
2023-02-27T08:56:35.222Z,0.74
2023-02-27T08:59:09.785Z,0.83
2023-02-27T09:01:43.921Z,1.11
2023-02-27T09:04:16.657Z,1.10
2023-02-27T09:06:48.954Z,1.17
2023-02-27T09:09:20.979Z,1.34
2023-02-27T09:11:53.296Z,1.76
2023-02-27T09:14:27.795Z,2.33
2023-02-27T09:17:00.149Z,2.07
2023-02-27T09:19:32.305Z,2.28
2023-02-27T09:22:04.510Z,2.33
2023-02-27T09:24:36.461Z,2.02
2023-02-27T09:27:09.024Z,2.79
2023-02-27T09:29:43.732Z,2.35
2023-02-27T09:32:16.110Z,2.27
2023-02-27T09:34:48.164Z,2.56
2023-02-27T09:37:21.426Z,2.35
2023-02-27T09:39:53.294Z,2.36
2023-02-27T09:42:28.415Z,2.28
2023-02-27T09:45:07.184Z,2.28
2023-02-27T09:47:43.137Z,2.38
2023-02-27T09:50:38.305Z,2.23
2023-02-27T09:53:17.856Z,2.42
2023-02-27T09:55:50.392Z,2.65
2023-02-27T09:58:45.519Z,2.46
2023-02-27T10:01:27.266Z,2.46
2023-02-27T10:04:21.437Z,2.32
2023-02-27T10:06:56.575Z,2.73
2023-02-27T10:09:44.750Z,3.01
2023-02-27T10:12:34.262Z,3.27
2023-02-27T10:15:13.552Z,3.50
2023-02-27T10:17:52.479Z,3.60
2023-02-27T10:20:29.793Z,3.55
2023-02-27T10:23:06.829Z,3.78
2023-02-27T10:25:45.895Z,3.99
2023-02-27T10:28:21.125Z,3.83
2023-02-27T10:30:57.699Z,4.71
2023-02-27T10:33:39.158Z,4.12
2023-02-27T10:36:18.076Z,4.48
2023-02-27T10:38:56.878Z,4.74
2023-02-27T10:41:31.283Z,4.64
2023-02-27T10:44:04.400Z,4.94
2023-02-27T10:46:39.994Z,4.80
2023-02-27T10:49:19.897Z,4.41
2023-02-27T10:52:13.676Z,4.91
2023-02-27T10:54:46.837Z,4.66
2023-02-27T10:57:29.746Z,4.65
2023-02-27T11:00:07.554Z,4.09
2023-02-27T11:02:44.110Z,4.20
2023-02-27T11:05:30.009Z,5.02
2023-02-27T11:08:16.975Z,4.43
2023-02-27T11:10:59.635Z,4.94
2023-02-27T11:13:35.674Z,5.72
2023-02-27T11:16:14.893Z,5.77
2023-02-27T11:18:49.584Z,5.44
2023-02-27T11:21:30.897Z,5.98
2023-02-27T11:24:07.187Z,6.07
2023-02-27T11:26:41.867Z,6.20
2023-02-27T11:29:20.394Z,5.66
2023-02-27T11:31:56.900Z,5.76
2023-02-27T11:34:36.824Z,6.09
2023-02-27T11:37:29.661Z,5.26
2023-02-27T11:40:16.172Z,5.28
2023-02-27T11:42:51.661Z,5.82
2023-02-27T11:46:04.751Z,5.31
2023-02-27T11:48:31.662Z,5.47
2023-02-27T11:51:28.721Z,4.72
2023-02-27T11:54:19.001Z,5.21
2023-02-27T11:57:06.623Z,4.67
2023-02-27T11:59:57.785Z,5.13
2023-02-27T12:02:40.651Z,4.94
2023-02-27T12:05:19.154Z,4.95
2023-02-27T12:07:58.190Z,4.36
2023-02-27T12:10:38.919Z,4.33
2023-02-27T12:13:19.557Z,4.21
2023-02-27T12:15:57.302Z,4.50
2023-02-27T12:18:35.387Z,3.97
2023-02-27T12:21:44.220Z,4.52
2023-02-27T12:24:25.183Z,4.63
2023-02-27T12:27:12.943Z,3.55
2023-02-27T12:29:51.462Z,3.55
2023-02-27T12:32:28.599Z,4.03
2023-02-27T12:35:06.481Z,3.65
2023-02-27T12:37:41.179Z,3.45
2023-02-27T12:40:19.781Z,3.59
2023-02-27T12:43:13.776Z,3.64
2023-02-27T12:46:02.547Z,3.64
2023-02-27T12:48:56.217Z,3.57
2023-02-27T12:51:39.259Z,3.68
2023-02-27T12:54:30.215Z,3.77
2023-02-27T12:57:16.945Z,3.47
2023-02-27T13:00:06.854Z,3.84
2023-02-27T13:02:51.066Z,3.55
2023-02-27T13:05:46.377Z,3.58
2023-02-27T13:08:44.018Z,3.47
2023-02-27T13:11:28.718Z,3.57
2023-02-27T13:14:05.582Z,4.10
2023-02-27T13:16:45.741Z,4.19
2023-02-27T13:19:23.341Z,3.81
2023-02-27T13:21:58.826Z,3.89
2023-02-27T13:24:34.110Z,3.66
2023-02-27T13:27:12.800Z,3.92
2023-02-27T13:29:52.664Z,4.00
2023-02-27T13:32:43.779Z,3.82
2023-02-27T13:35:38.017Z,3.43
2023-02-27T13:38:36.584Z,3.60
2023-02-27T13:41:44.168Z,3.70
2023-02-27T13:44:52.848Z,3.35
2023-02-27T13:47:50.488Z,3.78
2023-02-27T13:50:56.729Z,3.94
2023-02-27T13:53:36.054Z,3.93
2023-02-27T13:56:25.613Z,3.30
2023-02-27T13:58:59.283Z,3.66
2023-02-27T14:01:35.422Z,3.62
2023-02-27T14:04:11.766Z,3.43
2023-02-27T14:06:49.181Z,3.42
2023-02-27T14:09:26.029Z,3.78
2023-02-27T14:12:01.975Z,3.43
2023-02-27T14:14:51.131Z,3.67
2023-02-27T14:17:45.646Z,3.61
2023-02-27T14:20:54.466Z,3.67
2023-02-27T14:23:48.463Z,3.82
2023-02-27T14:26:24.681Z,3.80
2023-02-27T14:29:03.859Z,3.84
2023-02-27T14:31:44.222Z,3.60
2023-02-27T14:34:21.301Z,3.60
2023-02-27T14:37:01.707Z,3.66
2023-02-27T14:39:44.228Z,3.57
2023-02-27T14:42:44.495Z,3.69
2023-02-27T14:45:20.196Z,3.53
2023-02-27T14:48:08.338Z,3.47
2023-02-27T14:50:44.470Z,3.46
2023-02-27T14:53:31.032Z,3.41
2023-02-27T14:56:03.761Z,3.52
2023-02-27T14:58:36.561Z,3.38
2023-02-27T15:01:12.337Z,3.69
2023-02-27T15:04:01.852Z,3.56
2023-02-27T15:06:41.158Z,3.51
2023-02-27T15:09:26.031Z,3.59
2023-02-27T15:12:04.403Z,3.50
2023-02-27T15:14:40.323Z,3.54
2023-02-27T15:17:21.008Z,3.62
2023-02-27T15:19:55.817Z,3.34
2023-02-27T15:22:38.881Z,3.41
2023-02-27T15:25:34.357Z,3.41
2023-02-27T15:28:20.915Z,3.30
2023-02-27T15:30:54.052Z,3.32
2023-02-27T15:33:31.619Z,3.46
2023-02-27T15:36:04.925Z,3.50
2023-02-27T15:38:39.794Z,3.32
2023-02-27T15:41:17.657Z,3.12
2023-02-27T15:43:50.221Z,3.33
2023-02-27T15:46:23.272Z,3.26
2023-02-27T15:48:57.693Z,3.30
2023-02-27T15:51:30.903Z,3.44
2023-02-27T15:54:03.920Z,3.34
2023-02-27T15:56:42.166Z,3.26
2023-02-27T15:59:20.366Z,3.62
2023-02-27T16:01:53.161Z,3.59
2023-02-27T16:04:29.700Z,3.54
2023-02-27T16:07:06.286Z,3.31
2023-02-27T16:09:40.483Z,3.32
2023-02-27T16:12:27.782Z,3.59
2023-02-27T16:15:25.250Z,3.28
2023-02-27T16:18:04.765Z,3.54
2023-02-27T16:20:48.603Z,3.11
2023-02-27T16:23:27.949Z,3.21
2023-02-27T16:26:06.792Z,3.16
2023-02-27T16:28:46.750Z,3.06
2023-02-27T16:31:28.978Z,3.42
2023-02-27T16:34:04.548Z,3.16
2023-02-27T16:36:36.996Z,3.20
2023-02-27T16:39:09.904Z,3.30
2023-02-27T16:41:42.510Z,3.44
2023-02-27T16:44:18.829Z,3.47
2023-02-27T16:46:51.562Z,3.19
2023-02-27T16:49:26.489Z,3.26
2023-02-27T16:52:01.686Z,3.36
2023-02-27T16:54:37.085Z,3.27
2023-02-27T16:57:09.640Z,3.27
2023-02-27T16:59:45.171Z,3.11
2023-02-27T17:02:19.849Z,3.30
2023-02-27T17:04:52.845Z,3.14
2023-02-27T17:07:25.481Z,3.31
2023-02-27T17:09:58.444Z,3.31
2023-02-27T17:12:30.926Z,2.97
2023-02-27T17:15:06.443Z,3.03
2023-02-27T17:17:38.641Z,2.92
2023-02-27T17:20:13.134Z,3.15
2023-02-27T17:22:47.685Z,3.13
2023-02-27T17:25:20.775Z,3.18
2023-02-27T17:27:53.206Z,3.16
2023-02-27T17:30:43.202Z,3.10
2023-02-27T17:33:15.653Z,2.86
2023-02-27T17:35:48.502Z,3.13
2023-02-27T17:38:21.856Z,3.16
2023-02-27T17:40:54.925Z,3.11
2023-02-27T17:43:27.583Z,2.73
2023-02-27T17:46:03.788Z,2.96
2023-02-27T17:48:35.886Z,2.97
2023-02-27T17:51:18.673Z,2.59
2023-02-27T17:53:52.404Z,2.72
2023-02-27T17:56:25.424Z,2.97
2023-02-27T17:58:58.091Z,2.67
2023-02-27T18:01:33.506Z,2.86
2023-02-27T18:04:05.405Z,2.75
2023-02-27T18:06:37.845Z,2.69
2023-02-27T18:09:10.247Z,2.62
2023-02-27T18:11:42.568Z,2.53
2023-02-27T18:14:14.815Z,2.52
2023-02-27T18:16:50.012Z,2.73
2023-02-27T18:19:24.802Z,2.75
2023-02-27T18:22:09.304Z,2.64
2023-02-27T18:24:41.625Z,2.69
2023-02-27T18:27:14.323Z,2.73
2023-02-27T18:29:47.108Z,2.61
2023-02-27T18:32:22.121Z,2.64
2023-02-27T18:34:54.524Z,2.31
2023-02-27T18:37:38.841Z,2.57
2023-02-27T18:40:15.486Z,2.59
2023-02-27T18:42:49.135Z,2.46
2023-02-27T18:45:21.804Z,2.52
2023-02-27T18:47:56.870Z,2.73
2023-02-27T18:50:29.370Z,2.65
2023-02-27T18:53:02.064Z,2.62
2023-02-27T18:55:34.203Z,2.47
2023-02-27T18:58:06.423Z,2.59
2023-02-27T19:00:38.623Z,2.52
2023-02-27T19:03:13.512Z,2.51
2023-02-27T19:05:45.597Z,2.46
2023-02-27T19:08:18.224Z,2.34
2023-02-27T19:10:50.343Z,2.46
2023-02-27T19:13:22.781Z,2.38
2023-02-27T19:15:55.573Z,2.34
2023-02-27T19:18:30.510Z,2.43
2023-02-27T19:21:06.752Z,2.34
2023-02-27T19:23:39.784Z,2.37
2023-02-27T19:26:11.950Z,2.33
2023-02-27T19:28:44.342Z,2.33
2023-02-27T19:31:18.276Z,2.36
2023-02-27T19:33:53.583Z,2.29
2023-02-27T19:36:28.121Z,2.40
2023-02-27T19:39:01.601Z,2.39
2023-02-27T19:41:33.769Z,2.53
2023-02-27T19:44:06.063Z,2.58
2023-02-27T19:46:40.880Z,2.36
2023-02-27T19:49:16.881Z,2.37
2023-02-27T19:51:48.879Z,2.46
2023-02-27T19:54:21.387Z,2.41
2023-02-27T19:56:54.725Z,2.40
2023-02-27T19:59:28.005Z,2.27
2023-02-27T20:02:00.343Z,2.44
2023-02-27T20:04:36.358Z,2.25
2023-02-27T20:07:08.963Z,2.28
2023-02-27T20:09:41.969Z,2.25
2023-02-27T20:12:14.448Z,2.31
2023-02-27T20:14:47.134Z,2.47
2023-02-27T20:17:19.783Z,2.37
2023-02-27T20:19:55.320Z,2.12
2023-02-27T20:25:22.785Z,1.91
2023-02-27T20:27:55.532Z,2.07
2023-02-27T20:30:28.464Z,1.99
2023-02-27T20:33:00.979Z,2.13
2023-02-27T20:35:36.101Z,1.92
2023-02-27T20:38:09.321Z,2.02
2023-02-27T20:40:41.844Z,2.14
2023-02-27T20:43:13.988Z,2.16
2023-02-27T20:45:46.819Z,2.08
2023-02-27T20:48:19.067Z,2.14
2023-02-27T20:50:54.159Z,2.20
2023-02-27T20:53:26.348Z,2.03
2023-02-27T20:55:58.700Z,2.11
2023-02-27T20:58:33.579Z,2.19
2023-02-27T21:01:18.451Z,2.16
2023-02-27T21:04:10.053Z,2.00
2023-02-27T21:06:46.657Z,2.21
2023-02-27T21:09:19.138Z,2.24
2023-02-27T21:11:51.497Z,2.00
2023-02-27T21:14:23.881Z,2.17
2023-02-27T21:16:59.685Z,2.23
2023-02-27T21:19:31.779Z,2.17
2023-02-27T21:22:07.902Z,2.09
2023-02-27T21:24:39.938Z,2.23
2023-02-27T21:27:12.163Z,2.20
2023-02-27T21:29:44.526Z,2.14
2023-02-27T21:32:18.735Z,2.07
2023-02-27T21:34:50.924Z,2.01
2023-02-27T21:37:26.063Z,2.24
2023-02-27T21:39:58.218Z,2.33
2023-02-27T21:42:31.134Z,2.36
2023-02-27T21:45:04.895Z,2.18
2023-02-27T21:47:37.095Z,2.23
2023-02-27T21:50:17.665Z,2.12
2023-02-27T21:52:53.640Z,2.35
2023-02-27T21:55:25.759Z,2.28
2023-02-27T21:57:57.815Z,2.00
2023-02-27T22:00:30.967Z,1.77
2023-02-27T22:03:02.981Z,1.86
2023-02-27T22:05:34.549Z,1.84
2023-02-27T22:08:08.511Z,1.80
2023-02-27T22:10:43.288Z,1.88
2023-02-27T22:13:16.341Z,2.11
2023-02-27T22:15:47.276Z,1.83
2023-02-27T22:18:19.130Z,2.16
2023-02-27T22:20:51.140Z,2.23
2023-02-27T22:23:25.963Z,2.11
2023-02-27T22:26:04.781Z,2.02
2023-02-27T22:28:39.388Z,1.99
2023-02-27T22:31:13.052Z,2.06
2023-02-27T22:33:46.510Z,1.92
2023-02-27T22:36:20.770Z,1.98
2023-02-27T22:38:55.856Z,2.04
2023-02-27T22:41:35.948Z,2.04
2023-02-27T22:44:09.733Z,2.04
2023-02-27T22:46:43.600Z,2.03
2023-02-27T22:49:18.609Z,2.11
2023-02-27T22:51:52.248Z,2.03
2023-02-27T22:54:27.249Z,1.99
2023-02-27T22:56:58.957Z,1.94
2023-02-27T22:59:31.202Z,1.99
2023-02-27T23:02:02.690Z,2.02
2023-02-27T23:04:34.523Z,2.00
2023-02-27T23:07:06.249Z,1.77
2023-02-27T23:09:41.376Z,1.80
2023-02-27T23:12:13.457Z,1.91
2023-02-27T23:14:45.805Z,2.06
2023-02-27T23:17:17.762Z,2.13
2023-02-27T23:19:50.222Z,2.14
2023-02-27T23:22:22.061Z,2.02
2023-02-27T23:24:57.407Z,2.11
2023-02-27T23:27:29.059Z,2.19
2023-02-27T23:30:01.904Z,2.08
2023-02-27T23:32:44.349Z,2.08
2023-02-27T23:35:23.017Z,2.16
2023-02-27T23:37:56.788Z,2.09
2023-02-27T23:40:32.727Z,2.06
2023-02-27T23:43:04.338Z,2.00
2023-02-27T23:45:36.339Z,2.10
2023-02-27T23:48:08.983Z,1.95
2023-02-27T23:50:44.162Z,2.12
2023-02-27T23:53:17.786Z,2.17
2023-02-27T23:55:52.257Z,2.10
2023-02-27T23:58:23.688Z,2.19
